createdAt,value
2019-04-23T00:00:20.251Z,6.93
2019-04-23T00:05:35.464Z,7.90
2019-04-23T00:10:30.280Z,7.17
2019-04-23T00:15:24.050Z,7.47
2019-04-23T00:20:28.740Z,8.17
2019-04-23T00:25:56.180Z,8.07
2019-04-23T00:35:51.558Z,7.70
2019-04-23T00:40:55.996Z,7.00
2019-04-23T00:50:55.890Z,8.03
2019-04-23T01:01:00.355Z,7.77
2019-04-23T01:05:58.859Z,8.93
2019-04-23T01:16:09.933Z,9.37
2019-04-23T01:20:57.686Z,8.20
2019-04-23T01:26:18.210Z,8.33
2019-04-23T01:41:28.575Z,8.37
2019-04-23T01:46:29.208Z,9.00
2019-04-23T01:51:33.908Z,9.20
2019-04-23T01:56:28.721Z,9.27
2019-04-23T02:01:35.719Z,8.80
2019-04-23T02:06:34.928Z,8.00
2019-04-23T02:11:35.690Z,9.20
2019-04-23T02:16:36.153Z,9.77
2019-04-23T02:21:41.364Z,9.27
2019-04-23T02:32:02.901Z,8.50
2019-04-23T02:42:13.059Z,8.90
2019-04-23T02:46:59.465Z,8.67
2019-04-23T02:56:55.277Z,9.57
2019-04-23T03:02:05.479Z,9.60
2019-04-23T03:07:01.136Z,8.80
2019-04-23T03:12:09.815Z,9.77
2019-04-23T03:22:09.698Z,9.23
2019-04-23T03:27:31.489Z,9.23
2019-04-23T03:42:17.299Z,9.20
2019-04-23T03:47:33.036Z,9.53
2019-04-23T03:57:30.808Z,9.17
2019-04-23T04:12:29.274Z,8.90
2019-04-23T04:17:35.525Z,8.83
2019-04-23T04:27:43.378Z,9.20
2019-04-23T04:32:30.825Z,8.30
2019-04-23T04:37:48.397Z,8.77
2019-04-23T04:42:58.583Z,8.60
2019-04-23T05:07:42.121Z,7.67
2019-04-23T05:13:06.705Z,8.17
2019-04-23T05:17:54.056Z,8.03
2019-04-23T05:27:55.203Z,8.60
2019-04-23T05:32:51.827Z,7.30
2019-04-23T05:37:58.999Z,8.00
2019-04-23T05:42:52.108Z,7.07
2019-04-23T05:47:58.629Z,8.73
2019-04-23T05:52:52.839Z,7.60
2019-04-23T05:57:53.728Z,7.63
2019-04-23T06:02:57.232Z,7.80
2019-04-23T06:07:57.786Z,6.80
2019-04-23T06:13:00.391Z,6.80
2019-04-23T06:18:01.778Z,7.30
2019-04-23T06:23:05.555Z,7.57
2019-04-23T06:28:09.410Z,7.57
2019-04-23T06:33:11.202Z,5.80
2019-04-23T06:38:28.106Z,7.10
2019-04-23T06:43:21.510Z,7.07
2019-04-23T06:53:12.934Z,5.80
2019-04-23T06:58:27.682Z,6.50
2019-04-23T07:03:35.918Z,6.30
2019-04-23T07:08:33.514Z,6.67
2019-04-23T07:13:31.192Z,7.10
2019-04-23T07:18:24.558Z,7.03
2019-04-23T07:23:38.055Z,6.73
2019-04-23T07:28:39.112Z,5.70
2019-04-23T07:33:34.786Z,5.83
2019-04-23T07:39:01.524Z,5.53
2019-04-23T07:44:12.895Z,6.63
2019-04-23T07:49:07.824Z,6.17
2019-04-23T07:54:08.039Z,5.90
2019-04-23T07:59:16.082Z,6.53
2019-04-23T08:04:13.694Z,5.30
2019-04-23T08:09:10.820Z,5.13
2019-04-23T08:14:15.453Z,5.87
2019-04-23T08:19:14.219Z,6.37
2019-04-23T08:24:48.563Z,5.93
2019-04-23T08:29:36.134Z,6.17
2019-04-23T08:39:45.447Z,5.80
2019-04-23T08:45:06.455Z,6.13
2019-04-23T08:49:50.771Z,5.57
2019-04-23T08:59:57.402Z,5.40
2019-04-23T09:05:02.454Z,5.07
2019-04-23T09:15:27.680Z,5.33
2019-04-23T09:25:29.853Z,4.63
2019-04-23T09:30:25.336Z,4.90
2019-04-23T09:35:42.730Z,5.10
2019-04-23T09:41:15.554Z,5.67
2019-04-23T09:46:17.576Z,5.73
2019-04-23T09:51:17.937Z,5.67
2019-04-23T09:56:14.231Z,4.53
2019-04-23T10:06:10.358Z,5.30
2019-04-23T10:11:07.249Z,5.07
2019-04-23T10:16:10.293Z,4.30
2019-04-23T10:21:08.513Z,5.23
2019-04-23T10:26:08.087Z,4.87
2019-04-23T10:31:09.044Z,4.93
2019-04-23T10:36:13.079Z,5.47
2019-04-23T10:41:10.102Z,5.83
2019-04-23T10:46:47.143Z,4.60
2019-04-23T10:52:07.615Z,5.27
2019-04-23T10:56:59.751Z,5.27
2019-04-23T11:02:20.017Z,5.33
2019-04-23T11:12:24.276Z,4.87
2019-04-23T11:17:19.042Z,5.47
2019-04-23T11:22:36.301Z,5.17
2019-04-23T11:27:25.960Z,6.30
2019-04-23T11:37:30.114Z,6.10
2019-04-23T11:42:19.628Z,4.83
2019-04-23T11:47:45.603Z,5.33
2019-04-23T11:52:30.686Z,4.63
2019-04-23T12:02:55.153Z,5.67
2019-04-23T12:07:57.648Z,5.23
2019-04-23T12:12:55.667Z,5.20
2019-04-23T12:17:59.372Z,6.93
2019-04-23T12:23:12.208Z,4.60
2019-04-23T12:27:59.620Z,4.87
2019-04-23T12:33:03.347Z,3.97
2019-04-23T12:48:15.854Z,5.40
2019-04-23T12:53:19.908Z,6.33
2019-04-23T12:58:16.374Z,5.60
2019-04-23T13:03:16.526Z,5.13
2019-04-23T13:08:27.207Z,5.10
2019-04-23T13:13:23.932Z,6.03
2019-04-23T13:18:23.646Z,9.53
2019-04-23T13:23:21.925Z,5.80
2019-04-23T13:28:21.672Z,6.30
2019-04-23T13:38:32.086Z,5.73
2019-04-23T13:43:36.296Z,6.03
2019-04-23T13:48:20.097Z,6.53
2019-04-23T13:58:32.938Z,6.70
2019-04-23T14:03:45.452Z,5.80
2019-04-23T14:13:45.615Z,6.87
2019-04-23T14:18:55.201Z,5.40
2019-04-23T14:24:01.565Z,7.73
2019-04-23T14:28:41.777Z,5.53
2019-04-23T14:33:58.398Z,6.27
2019-04-23T14:38:43.698Z,6.40
2019-04-23T14:44:05.325Z,6.40
2019-04-23T14:48:52.092Z,7.60
2019-04-23T14:58:57.665Z,7.60
2019-04-23T15:08:59.215Z,8.17
2019-04-23T15:13:54.061Z,7.47
2019-04-23T15:19:22.089Z,7.47
2019-04-23T15:28:58.671Z,8.00
2019-04-23T15:49:21.449Z,7.97
2019-04-23T15:54:25.272Z,7.30
2019-04-23T15:59:35.067Z,6.93
2019-04-23T16:03:59.101Z,8.23
2019-04-23T16:09:16.348Z,7.40
2019-04-23T16:14:31.225Z,7.50
2019-04-23T16:19:57.931Z,7.40
2019-04-23T16:25:03.287Z,8.60
2019-04-23T16:30:17.798Z,7.87
2019-04-23T16:35:15.578Z,8.73
2019-04-23T16:40:19.268Z,8.60
2019-04-23T16:45:12.535Z,9.43
2019-04-23T16:55:07.056Z,9.23
2019-04-23T17:00:25.948Z,8.80
2019-04-23T17:05:15.825Z,9.30
2019-04-23T17:10:13.085Z,9.17
2019-04-23T17:20:16.125Z,9.30
2019-04-23T17:30:19.972Z,9.30
2019-04-23T17:35:24.660Z,10.40
2019-04-23T17:40:30.762Z,10.30
2019-04-23T17:45:32.435Z,10.60
2019-04-23T17:51:08.056Z,9.93
2019-04-23T17:55:54.883Z,10.47
2019-04-23T18:06:03.679Z,11.00
2019-04-23T18:11:09.276Z,10.87
2019-04-23T18:16:02.966Z,10.00
2019-04-23T18:26:17.391Z,10.27
2019-04-23T18:31:31.450Z,10.53
2019-04-23T18:36:33.658Z,9.87
2019-04-23T18:41:41.645Z,10.47
2019-04-23T18:46:36.985Z,10.10
2019-04-23T18:51:36.719Z,10.40
2019-04-23T19:02:05.164Z,10.40
2019-04-23T19:07:42.617Z,11.90
2019-04-23T19:12:41.435Z,9.67
2019-04-23T19:17:46.541Z,10.03
2019-04-23T19:22:46.965Z,8.87
2019-04-23T19:27:40.555Z,8.10
2019-04-23T19:32:41.767Z,8.87
2019-04-23T19:42:50.700Z,7.57
2019-04-23T19:47:56.462Z,7.40
2019-04-23T19:53:03.181Z,6.47
2019-04-23T19:57:51.091Z,5.70
2019-04-23T20:03:09.909Z,5.57
2019-04-23T20:07:56.919Z,5.00
2019-04-23T20:12:54.495Z,4.87
2019-04-23T20:17:54.246Z,5.07
2019-04-23T20:22:51.177Z,4.83
2019-04-23T20:28:01.934Z,4.40
2019-04-23T20:38:25.730Z,5.20
2019-04-23T20:43:32.709Z,4.00
2019-04-23T20:48:14.303Z,4.30
2019-04-23T20:53:13.680Z,4.57
2019-04-23T20:58:21.237Z,5.53
2019-04-23T21:08:44.237Z,5.63
2019-04-23T21:13:43.364Z,5.37
2019-04-23T21:18:33.060Z,5.87
2019-04-23T21:34:12.774Z,5.10
2019-04-23T21:44:28.906Z,4.83
2019-04-23T21:49:29.428Z,4.70
2019-04-23T21:54:14.981Z,4.30
2019-04-23T21:59:10.017Z,3.60
2019-04-23T22:09:31.952Z,3.30
2019-04-23T22:14:28.994Z,3.10
2019-04-23T22:24:25.375Z,2.90
2019-04-23T22:39:39.604Z,4.27
2019-04-23T22:49:53.208Z,3.50
2019-04-23T22:54:57.351Z,3.23
2019-04-23T23:00:04.429Z,4.20
2019-04-23T23:05:09.626Z,3.23
2019-04-23T23:10:00.859Z,2.87
2019-04-23T23:15:01.423Z,3.00
2019-04-23T23:20:05.674Z,2.90
2019-04-23T23:25:04.715Z,3.30
2019-04-23T23:30:05.097Z,3.97
2019-04-23T23:40:17.967Z,2.90
2019-04-23T23:45:10.567Z,4.00
2019-04-23T23:50:10.473Z,3.63
2019-04-23T23:55:07.921Z,3.23
